sensor_id;sensor_type;location;lat;lon;timestamp;P1;durP1;ratioP1;P2;durP2;ratioP2
9128;SDS011;4599;50.906;6.786;2023-01-16T00:01:57;2.97;;;1.07;;
9128;SDS011;4599;50.906;6.786;2023-01-16T00:05:58;2.33;;;0.80;;
9128;SDS011;4599;50.906;6.786;2023-01-16T00:10:00;1.97;;;0.83;;
9128;SDS011;4599;50.906;6.786;2023-01-16T00:14:01;1.70;;;1.03;;
9128;SDS011;4599;50.906;6.786;2023-01-16T00:18:05;2.60;;;1.20;;
9128;SDS011;4599;50.906;6.786;2023-01-16T00:22:06;3.13;;;1.00;;
9128;SDS011;4599;50.906;6.786;2023-01-16T00:26:08;2.07;;;1.03;;
9128;SDS011;4599;50.906;6.786;2023-01-16T00:30:10;3.50;;;1.00;;
9128;SDS011;4599;50.906;6.786;2023-01-16T00:34:13;1.37;;;0.80;;
9128;SDS011;4599;50.906;6.786;2023-01-16T00:38:14;3.07;;;0.73;;
9128;SDS011;4599;50.906;6.786;2023-01-16T00:42:15;2.90;;;0.87;;
9128;SDS011;4599;50.906;6.786;2023-01-16T00:46:17;2.50;;;0.90;;
9128;SDS011;4599;50.906;6.786;2023-01-16T00:50:20;1.37;;;0.70;;
9128;SDS011;4599;50.906;6.786;2023-01-16T00:54:21;2.03;;;0.87;;
9128;SDS011;4599;50.906;6.786;2023-01-16T00:58:23;4.83;;;0.83;;
9128;SDS011;4599;50.906;6.786;2023-01-16T01:02:24;3.43;;;0.73;;
9128;SDS011;4599;50.906;6.786;2023-01-16T01:06:27;3.37;;;1.00;;
9128;SDS011;4599;50.906;6.786;2023-01-16T01:10:28;0.90;;;0.77;;
9128;SDS011;4599;50.906;6.786;2023-01-16T01:14:30;6.43;;;1.10;;
9128;SDS011;4599;50.906;6.786;2023-01-16T01:18:31;3.13;;;0.87;;
9128;SDS011;4599;50.906;6.786;2023-01-16T01:22:34;1.37;;;0.70;;
9128;SDS011;4599;50.906;6.786;2023-01-16T01:26:36;3.53;;;1.07;;
9128;SDS011;4599;50.906;6.786;2023-01-16T01:30:37;1.73;;;0.90;;
9128;SDS011;4599;50.906;6.786;2023-01-16T01:34:39;3.70;;;1.07;;
9128;SDS011;4599;50.906;6.786;2023-01-16T01:38:42;2.10;;;0.87;;
9128;SDS011;4599;50.906;6.786;2023-01-16T01:42:43;0.97;;;0.63;;
9128;SDS011;4599;50.906;6.786;2023-01-16T01:46:45;2.10;;;0.90;;
9128;SDS011;4599;50.906;6.786;2023-01-16T01:50:49;2.43;;;0.90;;
9128;SDS011;4599;50.906;6.786;2023-01-16T01:54:56;2.23;;;0.73;;
9128;SDS011;4599;50.906;6.786;2023-01-16T01:59:02;2.43;;;0.70;;
9128;SDS011;4599;50.906;6.786;2023-01-16T02:03:10;1.03;;;0.60;;
9128;SDS011;4599;50.906;6.786;2023-01-16T02:07:16;1.17;;;0.73;;
9128;SDS011;4599;50.906;6.786;2023-01-16T02:11:22;1.93;;;0.60;;
9128;SDS011;4599;50.906;6.786;2023-01-16T02:15:27;0.87;;;0.50;;
9128;SDS011;4599;50.906;6.786;2023-01-16T02:19:33;0.23;;;0.23;;
9128;SDS011;4599;50.906;6.786;2023-01-16T02:24:07;0.40;;;0.40;;
9128;SDS011;4599;50.906;6.786;2023-01-16T02:28:32;0.93;;;0.50;;
9128;SDS011;4599;50.906;6.786;2023-01-16T02:33:00;0.30;;;0.30;;
9128;SDS011;4599;50.906;6.786;2023-01-16T02:37:09;1.13;;;0.40;;
9128;SDS011;4599;50.906;6.786;2023-01-16T02:41:20;0.47;;;0.47;;
9128;SDS011;4599;50.906;6.786;2023-01-16T02:45:32;0.83;;;0.40;;
9128;SDS011;4599;50.906;6.786;2023-01-16T02:49:46;0.30;;;0.30;;
9128;SDS011;4599;50.906;6.786;2023-01-16T02:53:56;0.70;;;0.40;;
9128;SDS011;4599;50.906;6.786;2023-01-16T02:58:03;0.70;;;0.40;;
9128;SDS011;4599;50.906;6.786;2023-01-16T03:02:07;3.30;;;0.40;;
9128;SDS011;4599;50.906;6.786;2023-01-16T03:06:20;0.30;;;0.30;;
9128;SDS011;4599;50.906;6.786;2023-01-16T03:15:00;1.73;;;0.60;;
9128;SDS011;4599;50.906;6.786;2023-01-16T03:19:16;1.80;;;0.30;;
9128;SDS011;4599;50.906;6.786;2023-01-16T03:23:28;0.40;;;0.40;;
9128;SDS011;4599;50.906;6.786;2023-01-16T03:27:39;2.80;;;0.90;;
9128;SDS011;4599;50.906;6.786;2023-01-16T03:31:47;1.63;;;0.53;;
9128;SDS011;4599;50.906;6.786;2023-01-16T03:35:54;0.60;;;0.60;;
9128;SDS011;4599;50.906;6.786;2023-01-16T03:40:00;3.20;;;1.07;;
9128;SDS011;4599;50.906;6.786;2023-01-16T03:44:05;1.93;;;0.80;;
9128;SDS011;4599;50.906;6.786;2023-01-16T03:48:12;1.53;;;0.80;;
9128;SDS011;4599;50.906;6.786;2023-01-16T03:52:19;3.03;;;0.87;;
9128;SDS011;4599;50.906;6.786;2023-01-16T03:56:29;1.43;;;0.83;;
9128;SDS011;4599;50.906;6.786;2023-01-16T04:00:37;1.30;;;0.67;;
9128;SDS011;4599;50.906;6.786;2023-01-16T04:04:47;2.27;;;0.80;;
9128;SDS011;4599;50.906;6.786;2023-01-16T04:08:52;1.47;;;0.90;;
9128;SDS011;4599;50.906;6.786;2023-01-16T04:13:01;2.10;;;0.77;;
9128;SDS011;4599;50.906;6.786;2023-01-16T04:17:06;4.77;;;1.40;;
9128;SDS011;4599;50.906;6.786;2023-01-16T04:21:08;5.23;;;1.40;;
9128;SDS011;4599;50.906;6.786;2023-01-16T04:25:09;4.10;;;1.10;;
9128;SDS011;4599;50.906;6.786;2023-01-16T04:29:12;3.13;;;1.10;;
9128;SDS011;4599;50.906;6.786;2023-01-16T04:33:14;2.03;;;1.00;;
9128;SDS011;4599;50.906;6.786;2023-01-16T04:37:16;4.27;;;0.90;;
9128;SDS011;4599;50.906;6.786;2023-01-16T04:41:18;3.80;;;1.43;;
9128;SDS011;4599;50.906;6.786;2023-01-16T04:45:21;3.47;;;1.30;;
9128;SDS011;4599;50.906;6.786;2023-01-16T04:49:22;5.23;;;1.40;;
9128;SDS011;4599;50.906;6.786;2023-01-16T04:53:24;3.00;;;1.10;;
9128;SDS011;4599;50.906;6.786;2023-01-16T04:57:25;4.97;;;1.60;;
9128;SDS011;4599;50.906;6.786;2023-01-16T05:01:28;5.50;;;1.17;;
9128;SDS011;4599;50.906;6.786;2023-01-16T05:05:29;1.80;;;0.90;;
9128;SDS011;4599;50.906;6.786;2023-01-16T05:09:31;2.83;;;1.13;;
9128;SDS011;4599;50.906;6.786;2023-01-16T05:13:33;3.10;;;1.00;;
9128;SDS011;4599;50.906;6.786;2023-01-16T05:17:36;3.80;;;1.10;;
9128;SDS011;4599;50.906;6.786;2023-01-16T05:21:37;5.60;;;1.17;;
9128;SDS011;4599;50.906;6.786;2023-01-16T05:25:39;3.37;;;1.03;;
9128;SDS011;4599;50.906;6.786;2023-01-16T05:29:40;4.50;;;1.00;;
9128;SDS011;4599;50.906;6.786;2023-01-16T05:33:43;2.87;;;1.03;;
9128;SDS011;4599;50.906;6.786;2023-01-16T05:37:45;3.77;;;1.20;;
9128;SDS011;4599;50.906;6.786;2023-01-16T05:41:46;4.43;;;1.30;;
9128;SDS011;4599;50.906;6.786;2023-01-16T05:45:48;1.40;;;0.60;;
9128;SDS011;4599;50.906;6.786;2023-01-16T05:49:50;2.70;;;0.80;;
9128;SDS011;4599;50.906;6.786;2023-01-16T05:53:52;2.83;;;1.40;;
9128;SDS011;4599;50.906;6.786;2023-01-16T05:57:53;2.50;;;1.00;;
9128;SDS011;4599;50.906;6.786;2023-01-16T06:01:55;4.97;;;1.33;;
9128;SDS011;4599;50.906;6.786;2023-01-16T06:05:58;3.97;;;1.20;;
9128;SDS011;4599;50.906;6.786;2023-01-16T06:09:59;3.77;;;1.00;;
9128;SDS011;4599;50.906;6.786;2023-01-16T06:14:01;3.40;;;1.20;;
9128;SDS011;4599;50.906;6.786;2023-01-16T06:18:02;2.00;;;0.80;;
9128;SDS011;4599;50.906;6.786;2023-01-16T06:22:05;2.77;;;0.90;;
9128;SDS011;4599;50.906;6.786;2023-01-16T06:26:06;2.07;;;0.93;;
9128;SDS011;4599;50.906;6.786;2023-01-16T06:30:08;2.80;;;1.30;;
9128;SDS011;4599;50.906;6.786;2023-01-16T06:34:10;4.83;;;1.80;;
9128;SDS011;4599;50.906;6.786;2023-01-16T06:38:13;5.50;;;1.77;;
9128;SDS011;4599;50.906;6.786;2023-01-16T06:42:15;5.83;;;3.20;;
9128;SDS011;4599;50.906;6.786;2023-01-16T06:46:16;8.70;;;2.93;;
9128;SDS011;4599;50.906;6.786;2023-01-16T06:50:18;8.00;;;3.50;;
9128;SDS011;4599;50.906;6.786;2023-01-16T06:54:21;7.13;;;2.70;;
9128;SDS011;4599;50.906;6.786;2023-01-16T06:58:22;7.90;;;2.70;;
9128;SDS011;4599;50.906;6.786;2023-01-16T07:02:24;4.03;;;2.03;;
9128;SDS011;4599;50.906;6.786;2023-01-16T07:06:25;7.77;;;2.53;;
9128;SDS011;4599;50.906;6.786;2023-01-16T07:10:28;6.77;;;1.30;;
9128;SDS011;4599;50.906;6.786;2023-01-16T07:14:32;3.87;;;1.07;;
9128;SDS011;4599;50.906;6.786;2023-01-16T07:18:34;2.50;;;1.07;;
9128;SDS011;4599;50.906;6.786;2023-01-16T07:22:35;3.23;;;1.07;;
9128;SDS011;4599;50.906;6.786;2023-01-16T07:26:39;2.90;;;1.03;;
9128;SDS011;4599;50.906;6.786;2023-01-16T07:30:42;1.50;;;1.00;;
9128;SDS011;4599;50.906;6.786;2023-01-16T07:34:45;4.03;;;1.33;;
9128;SDS011;4599;50.906;6.786;2023-01-16T07:38:46;2.53;;;0.80;;
9128;SDS011;4599;50.906;6.786;2023-01-16T07:42:50;6.30;;;1.77;;
9128;SDS011;4599;50.906;6.786;2023-01-16T07:46:52;2.33;;;1.20;;
9128;SDS011;4599;50.906;6.786;2023-01-16T07:50:54;9.27;;;1.57;;
9128;SDS011;4599;50.906;6.786;2023-01-16T07:54:56;3.80;;;1.30;;
9128;SDS011;4599;50.906;6.786;2023-01-16T07:58:59;4.63;;;1.40;;
9128;SDS011;4599;50.906;6.786;2023-01-16T08:03:00;9.87;;;1.73;;
9128;SDS011;4599;50.906;6.786;2023-01-16T08:07:02;4.23;;;1.33;;
9128;SDS011;4599;50.906;6.786;2023-01-16T08:11:04;6.37;;;1.63;;
9128;SDS011;4599;50.906;6.786;2023-01-16T08:15:07;7.20;;;1.50;;
9128;SDS011;4599;50.906;6.786;2023-01-16T08:19:09;4.80;;;1.20;;
9128;SDS011;4599;50.906;6.786;2023-01-16T08:23:11;6.30;;;1.53;;
9128;SDS011;4599;50.906;6.786;2023-01-16T08:27:13;3.27;;;1.57;;
9128;SDS011;4599;50.906;6.786;2023-01-16T08:31:15;4.33;;;1.10;;
9128;SDS011;4599;50.906;6.786;2023-01-16T08:35:17;4.87;;;1.50;;
9128;SDS011;4599;50.906;6.786;2023-01-16T08:39:18;3.93;;;1.27;;
9128;SDS011;4599;50.906;6.786;2023-01-16T08:43:20;3.87;;;1.70;;
9128;SDS011;4599;50.906;6.786;2023-01-16T08:47:23;2.80;;;1.40;;
9128;SDS011;4599;50.906;6.786;2023-01-16T08:51:25;4.03;;;1.40;;
9128;SDS011;4599;50.906;6.786;2023-01-16T08:55:26;4.83;;;1.50;;
9128;SDS011;4599;50.906;6.786;2023-01-16T08:59:28;3.73;;;1.30;;
9128;SDS011;4599;50.906;6.786;2023-01-16T09:03:30;2.23;;;0.97;;
9128;SDS011;4599;50.906;6.786;2023-01-16T09:07:32;4.40;;;1.40;;
9128;SDS011;4599;50.906;6.786;2023-01-16T09:11:33;5.60;;;1.63;;
9128;SDS011;4599;50.906;6.786;2023-01-16T09:15:36;3.00;;;1.30;;
9128;SDS011;4599;50.906;6.786;2023-01-16T09:19:38;5.70;;;1.20;;
9128;SDS011;4599;50.906;6.786;2023-01-16T09:23:40;1.27;;;0.90;;
9128;SDS011;4599;50.906;6.786;2023-01-16T09:27:43;4.47;;;1.10;;
9128;SDS011;4599;50.906;6.786;2023-01-16T09:31:45;3.30;;;1.13;;
9128;SDS011;4599;50.906;6.786;2023-01-16T09:35:47;2.70;;;1.17;;
9128;SDS011;4599;50.906;6.786;2023-01-16T09:39:49;5.13;;;1.37;;
9128;SDS011;4599;50.906;6.786;2023-01-16T09:43:50;2.37;;;1.40;;
9128;SDS011;4599;50.906;6.786;2023-01-16T09:47:53;5.13;;;1.40;;
9128;SDS011;4599;50.906;6.786;2023-01-16T09:51:59;4.23;;;1.53;;
9128;SDS011;4599;50.906;6.786;2023-01-16T09:56:07;3.23;;;1.20;;
9128;SDS011;4599;50.906;6.786;2023-01-16T10:00:11;5.17;;;1.50;;
9128;SDS011;4599;50.906;6.786;2023-01-16T10:04:17;3.30;;;1.30;;
9128;SDS011;4599;50.906;6.786;2023-01-16T10:08:22;1.70;;;0.93;;
9128;SDS011;4599;50.906;6.786;2023-01-16T10:12:32;3.67;;;1.00;;
9128;SDS011;4599;50.906;6.786;2023-01-16T10:16:39;1.77;;;0.60;;
9128;SDS011;4599;50.906;6.786;2023-01-16T10:20:52;1.87;;;0.83;;
9128;SDS011;4599;50.906;6.786;2023-01-16T10:25:14;1.13;;;0.90;;
9128;SDS011;4599;50.906;6.786;2023-01-16T10:29:22;5.90;;;1.70;;
9128;SDS011;4599;50.906;6.786;2023-01-16T10:33:27;4.53;;;1.50;;
9128;SDS011;4599;50.906;6.786;2023-01-16T10:37:40;2.70;;;1.40;;
9128;SDS011;4599;50.906;6.786;2023-01-16T10:41:46;2.90;;;1.40;;
9128;SDS011;4599;50.906;6.786;2023-01-16T10:45:49;9.03;;;1.93;;
9128;SDS011;4599;50.906;6.786;2023-01-16T10:49:51;4.50;;;1.80;;
9128;SDS011;4599;50.906;6.786;2023-01-16T10:53:53;4.80;;;1.60;;
9128;SDS011;4599;50.906;6.786;2023-01-16T10:57:58;4.60;;;1.80;;
9128;SDS011;4599;50.906;6.786;2023-01-16T11:02:08;3.20;;;1.30;;
9128;SDS011;4599;50.906;6.786;2023-01-16T11:06:17;4.57;;;1.17;;
9128;SDS011;4599;50.906;6.786;2023-01-16T11:10:21;1.83;;;1.00;;
9128;SDS011;4599;50.906;6.786;2023-01-16T11:14:25;1.97;;;0.80;;
9128;SDS011;4599;50.906;6.786;2023-01-16T11:18:33;1.53;;;0.80;;
9128;SDS011;4599;50.906;6.786;2023-01-16T11:22:37;0.60;;;0.60;;
9128;SDS011;4599;50.906;6.786;2023-01-16T11:26:41;0.90;;;0.70;;
9128;SDS011;4599;50.906;6.786;2023-01-16T11:30:48;2.30;;;0.70;;
9128;SDS011;4599;50.906;6.786;2023-01-16T11:34:54;1.10;;;0.60;;
9128;SDS011;4599;50.906;6.786;2023-01-16T11:38:58;0.93;;;0.70;;
9128;SDS011;4599;50.906;6.786;2023-01-16T11:43:05;0.70;;;0.60;;
9128;SDS011;4599;50.906;6.786;2023-01-16T11:47:15;2.67;;;0.77;;
9128;SDS011;4599;50.906;6.786;2023-01-16T11:51:19;0.50;;;0.50;;
9128;SDS011;4599;50.906;6.786;2023-01-16T11:55:22;1.87;;;0.80;;
9128;SDS011;4599;50.906;6.786;2023-01-16T11:59:39;1.10;;;0.70;;
9128;SDS011;4599;50.906;6.786;2023-01-16T12:04:01;1.10;;;0.77;;
9128;SDS011;4599;50.906;6.786;2023-01-16T12:08:17;0.97;;;0.70;;
9128;SDS011;4599;50.906;6.786;2023-01-16T12:12:33;1.17;;;0.90;;
9128;SDS011;4599;50.906;6.786;2023-01-16T12:16:38;1.50;;;0.83;;
9128;SDS011;4599;50.906;6.786;2023-01-16T12:20:53;1.33;;;0.90;;
9128;SDS011;4599;50.906;6.786;2023-01-16T12:25:02;0.93;;;0.80;;
9128;SDS011;4599;50.906;6.786;2023-01-16T12:29:21;4.17;;;1.20;;
9128;SDS011;4599;50.906;6.786;2023-01-16T12:33:33;2.20;;;1.43;;
9128;SDS011;4599;50.906;6.786;2023-01-16T12:37:55;1.90;;;1.00;;
9128;SDS011;4599;50.906;6.786;2023-01-16T12:42:09;1.00;;;0.90;;
9128;SDS011;4599;50.906;6.786;2023-01-16T12:46:29;1.67;;;0.97;;
9128;SDS011;4599;50.906;6.786;2023-01-16T12:50:39;2.17;;;1.07;;
9128;SDS011;4599;50.906;6.786;2023-01-16T12:54:57;2.13;;;1.30;;
9128;SDS011;4599;50.906;6.786;2023-01-16T12:59:09;1.13;;;0.73;;
9128;SDS011;4599;50.906;6.786;2023-01-16T13:03:19;2.07;;;0.83;;
9128;SDS011;4599;50.906;6.786;2023-01-16T13:07:28;1.03;;;0.80;;
9128;SDS011;4599;50.906;6.786;2023-01-16T13:11:41;2.27;;;0.90;;
9128;SDS011;4599;50.906;6.786;2023-01-16T13:16:08;2.10;;;1.33;;
9128;SDS011;4599;50.906;6.786;2023-01-16T13:20:13;2.37;;;1.13;;
9128;SDS011;4599;50.906;6.786;2023-01-16T13:24:18;1.10;;;0.90;;
9128;SDS011;4599;50.906;6.786;2023-01-16T13:28:29;1.97;;;1.00;;
9128;SDS011;4599;50.906;6.786;2023-01-16T13:32:37;2.33;;;1.00;;
9128;SDS011;4599;50.906;6.786;2023-01-16T13:36:47;6.00;;;1.13;;
9128;SDS011;4599;50.906;6.786;2023-01-16T13:41:16;1.30;;;0.83;;
9128;SDS011;4599;50.906;6.786;2023-01-16T13:45:30;3.43;;;1.00;;
9128;SDS011;4599;50.906;6.786;2023-01-16T13:49:37;1.63;;;1.00;;
9128;SDS011;4599;50.906;6.786;2023-01-16T13:53:40;2.83;;;1.27;;
9128;SDS011;4599;50.906;6.786;2023-01-16T13:57:46;2.87;;;1.70;;
9128;SDS011;4599;50.906;6.786;2023-01-16T14:01:55;2.57;;;1.50;;
9128;SDS011;4599;50.906;6.786;2023-01-16T14:10:23;3.83;;;1.40;;
9128;SDS011;4599;50.906;6.786;2023-01-16T14:14:28;1.80;;;1.10;;
9128;SDS011;4599;50.906;6.786;2023-01-16T14:18:36;3.00;;;1.60;;
9128;SDS011;4599;50.906;6.786;2023-01-16T14:22:40;1.63;;;1.00;;
9128;SDS011;4599;50.906;6.786;2023-01-16T14:26:43;1.47;;;0.70;;
9128;SDS011;4599;50.906;6.786;2023-01-16T14:30:50;3.73;;;1.00;;
9128;SDS011;4599;50.906;6.786;2023-01-16T14:34:53;0.60;;;0.60;;
9128;SDS011;4599;50.906;6.786;2023-01-16T14:38:56;2.00;;;1.20;;
9128;SDS011;4599;50.906;6.786;2023-01-16T14:42:58;3.40;;;1.10;;
9128;SDS011;4599;50.906;6.786;2023-01-16T14:47:10;2.53;;;0.97;;
9128;SDS011;4599;50.906;6.786;2023-01-16T14:51:30;2.03;;;1.33;;
9128;SDS011;4599;50.906;6.786;2023-01-16T14:55:40;1.93;;;1.13;;
9128;SDS011;4599;50.906;6.786;2023-01-16T14:59:48;2.27;;;1.10;;
9128;SDS011;4599;50.906;6.786;2023-01-16T15:03:57;3.10;;;1.67;;
9128;SDS011;4599;50.906;6.786;2023-01-16T15:08:01;2.30;;;2.10;;
9128;SDS011;4599;50.906;6.786;2023-01-16T15:12:09;2.50;;;2.30;;
9128;SDS011;4599;50.906;6.786;2023-01-16T15:16:11;3.07;;;2.33;;
9128;SDS011;4599;50.906;6.786;2023-01-16T15:20:20;2.80;;;2.10;;
9128;SDS011;4599;50.906;6.786;2023-01-16T15:24:26;4.20;;;1.93;;
9128;SDS011;4599;50.906;6.786;2023-01-16T15:28:30;2.40;;;2.20;;
9128;SDS011;4599;50.906;6.786;2023-01-16T15:32:53;5.17;;;2.93;;
9128;SDS011;4599;50.906;6.786;2023-01-16T15:36:55;4.90;;;2.70;;
9128;SDS011;4599;50.906;6.786;2023-01-16T15:41:00;6.63;;;3.80;;
9128;SDS011;4599;50.906;6.786;2023-01-16T15:45:15;5.63;;;4.00;;
9128;SDS011;4599;50.906;6.786;2023-01-16T15:49:20;7.20;;;4.07;;
9128;SDS011;4599;50.906;6.786;2023-01-16T15:53:31;7.00;;;4.90;;
9128;SDS011;4599;50.906;6.786;2023-01-16T15:57:37;5.43;;;4.07;;
9128;SDS011;4599;50.906;6.786;2023-01-16T16:01:39;4.90;;;3.97;;
9128;SDS011;4599;50.906;6.786;2023-01-16T16:05:40;3.07;;;2.63;;
9128;SDS011;4599;50.906;6.786;2023-01-16T16:09:47;2.60;;;1.87;;
9128;SDS011;4599;50.906;6.786;2023-01-16T16:13:53;8.97;;;5.43;;
9128;SDS011;4599;50.906;6.786;2023-01-16T16:17:59;2.53;;;2.00;;
9128;SDS011;4599;50.906;6.786;2023-01-16T16:22:02;2.47;;;1.33;;
9128;SDS011;4599;50.906;6.786;2023-01-16T16:26:10;5.23;;;1.70;;
9128;SDS011;4599;50.906;6.786;2023-01-16T16:30:18;1.23;;;1.00;;
9128;SDS011;4599;50.906;6.786;2023-01-16T16:34:23;0.50;;;0.50;;
9128;SDS011;4599;50.906;6.786;2023-01-16T16:38:25;0.70;;;0.70;;
9128;SDS011;4599;50.906;6.786;2023-01-16T16:42:47;2.30;;;0.80;;
9128;SDS011;4599;50.906;6.786;2023-01-16T16:46:57;0.53;;;0.50;;
9128;SDS011;4599;50.906;6.786;2023-01-16T16:51:09;0.70;;;0.70;;
9128;SDS011;4599;50.906;6.786;2023-01-16T16:55:27;0.67;;;0.67;;
9128;SDS011;4599;50.906;6.786;2023-01-16T16:59:30;0.77;;;0.77;;
9128;SDS011;4599;50.906;6.786;2023-01-16T17:03:32;0.73;;;0.73;;
9128;SDS011;4599;50.906;6.786;2023-01-16T17:07:34;1.27;;;0.90;;
9128;SDS011;4599;50.906;6.786;2023-01-16T17:11:36;0.70;;;0.70;;
9128;SDS011;4599;50.906;6.786;2023-01-16T17:15:37;0.70;;;0.70;;
9128;SDS011;4599;50.906;6.786;2023-01-16T17:19:40;0.70;;;0.70;;
9128;SDS011;4599;50.906;6.786;2023-01-16T17:23:42;0.97;;;0.90;;
9128;SDS011;4599;50.906;6.786;2023-01-16T17:27:43;0.70;;;0.67;;
9128;SDS011;4599;50.906;6.786;2023-01-16T17:31:45;0.97;;;0.80;;
9128;SDS011;4599;50.906;6.786;2023-01-16T17:35:49;0.70;;;0.67;;
9128;SDS011;4599;50.906;6.786;2023-01-16T17:39:50;0.70;;;0.70;;
9128;SDS011;4599;50.906;6.786;2023-01-16T17:43:52;0.60;;;0.50;;
9128;SDS011;4599;50.906;6.786;2023-01-16T17:47:53;0.77;;;0.67;;
9128;SDS011;4599;50.906;6.786;2023-01-16T17:51:56;1.10;;;0.67;;
9128;SDS011;4599;50.906;6.786;2023-01-16T17:55:58;0.80;;;0.60;;
9128;SDS011;4599;50.906;6.786;2023-01-16T18:00:00;0.40;;;0.40;;
9128;SDS011;4599;50.906;6.786;2023-01-16T18:04:02;0.60;;;0.60;;
9128;SDS011;4599;50.906;6.786;2023-01-16T18:08:05;0.77;;;0.60;;
9128;SDS011;4599;50.906;6.786;2023-01-16T18:12:07;0.63;;;0.50;;
9128;SDS011;4599;50.906;6.786;2023-01-16T18:16:09;0.70;;;0.70;;
9128;SDS011;4599;50.906;6.786;2023-01-16T18:20:15;0.93;;;0.80;;
9128;SDS011;4599;50.906;6.786;2023-01-16T18:24:18;1.20;;;0.70;;
9128;SDS011;4599;50.906;6.786;2023-01-16T18:28:20;0.97;;;0.83;;
9128;SDS011;4599;50.906;6.786;2023-01-16T18:32:21;0.80;;;0.73;;
9128;SDS011;4599;50.906;6.786;2023-01-16T18:36:23;0.60;;;0.60;;
9128;SDS011;4599;50.906;6.786;2023-01-16T18:40:26;0.50;;;0.50;;
9128;SDS011;4599;50.906;6.786;2023-01-16T18:44:27;1.20;;;0.80;;
9128;SDS011;4599;50.906;6.786;2023-01-16T18:48:28;0.60;;;0.60;;
9128;SDS011;4599;50.906;6.786;2023-01-16T18:52:32;1.87;;;0.90;;
9128;SDS011;4599;50.906;6.786;2023-01-16T18:56:37;1.80;;;1.00;;
9128;SDS011;4599;50.906;6.786;2023-01-16T19:00:40;1.00;;;0.93;;
9128;SDS011;4599;50.906;6.786;2023-01-16T19:04:42;1.10;;;0.83;;
9128;SDS011;4599;50.906;6.786;2023-01-16T19:08:43;1.87;;;0.90;;
9128;SDS011;4599;50.906;6.786;2023-01-16T19:12:49;1.30;;;1.10;;
9128;SDS011;4599;50.906;6.786;2023-01-16T19:16:51;1.70;;;1.30;;
9128;SDS011;4599;50.906;6.786;2023-01-16T19:20:52;1.70;;;1.43;;
9128;SDS011;4599;50.906;6.786;2023-01-16T19:24:55;2.43;;;1.90;;
9128;SDS011;4599;50.906;6.786;2023-01-16T19:28:57;1.73;;;1.60;;
9128;SDS011;4599;50.906;6.786;2023-01-16T19:32:59;2.10;;;1.70;;
9128;SDS011;4599;50.906;6.786;2023-01-16T19:37:00;2.50;;;1.27;;
9128;SDS011;4599;50.906;6.786;2023-01-16T19:41:02;1.87;;;1.60;;
9128;SDS011;4599;50.906;6.786;2023-01-16T19:45:06;2.90;;;1.83;;
9128;SDS011;4599;50.906;6.786;2023-01-16T19:49:09;2.07;;;1.80;;
9128;SDS011;4599;50.906;6.786;2023-01-16T19:53:10;1.70;;;1.60;;
9128;SDS011;4599;50.906;6.786;2023-01-16T19:57:12;2.20;;;2.00;;
9128;SDS011;4599;50.906;6.786;2023-01-16T20:01:15;2.43;;;2.23;;
9128;SDS011;4599;50.906;6.786;2023-01-16T20:05:16;2.80;;;2.60;;
9128;SDS011;4599;50.906;6.786;2023-01-16T20:09:18;2.50;;;2.30;;
9128;SDS011;4599;50.906;6.786;2023-01-16T20:13:20;3.40;;;2.70;;
9128;SDS011;4599;50.906;6.786;2023-01-16T20:17:22;2.40;;;2.20;;
9128;SDS011;4599;50.906;6.786;2023-01-16T20:21:24;3.00;;;2.27;;
9128;SDS011;4599;50.906;6.786;2023-01-16T20:25:26;6.40;;;2.70;;
9128;SDS011;4599;50.906;6.786;2023-01-16T20:29:28;2.77;;;2.57;;
9128;SDS011;4599;50.906;6.786;2023-01-16T20:33:31;2.93;;;2.70;;
9128;SDS011;4599;50.906;6.786;2023-01-16T20:37:34;2.60;;;2.40;;
9128;SDS011;4599;50.906;6.786;2023-01-16T20:41:35;3.70;;;2.50;;
9128;SDS011;4599;50.906;6.786;2023-01-16T20:45:38;2.20;;;2.00;;
9128;SDS011;4599;50.906;6.786;2023-01-16T20:49:41;2.60;;;2.10;;
9128;SDS011;4599;50.906;6.786;2023-01-16T20:53:43;2.53;;;1.90;;
9128;SDS011;4599;50.906;6.786;2023-01-16T20:57:44;1.70;;;1.60;;
9128;SDS011;4599;50.906;6.786;2023-01-16T21:01:46;1.70;;;1.60;;
9128;SDS011;4599;50.906;6.786;2023-01-16T21:05:49;2.03;;;1.60;;
9128;SDS011;4599;50.906;6.786;2023-01-16T21:09:51;2.27;;;1.23;;
9128;SDS011;4599;50.906;6.786;2023-01-16T21:13:52;1.80;;;1.43;;
9128;SDS011;4599;50.906;6.786;2023-01-16T21:17:54;1.47;;;1.37;;
9128;SDS011;4599;50.906;6.786;2023-01-16T21:21:57;4.33;;;1.67;;
9128;SDS011;4599;50.906;6.786;2023-01-16T21:25:58;3.30;;;1.60;;
9128;SDS011;4599;50.906;6.786;2023-01-16T21:30:00;1.83;;;1.40;;
9128;SDS011;4599;50.906;6.786;2023-01-16T21:34:04;3.33;;;1.30;;
9128;SDS011;4599;50.906;6.786;2023-01-16T21:38:07;1.57;;;1.20;;
9128;SDS011;4599;50.906;6.786;2023-01-16T21:42:09;3.50;;;1.60;;
9128;SDS011;4599;50.906;6.786;2023-01-16T21:46:17;1.40;;;1.30;;
9128;SDS011;4599;50.906;6.786;2023-01-16T21:50:19;1.67;;;1.13;;
9128;SDS011;4599;50.906;6.786;2023-01-16T21:54:22;1.60;;;1.30;;
9128;SDS011;4599;50.906;6.786;2023-01-16T21:58:26;1.87;;;1.20;;
9128;SDS011;4599;50.906;6.786;2023-01-16T22:02:29;1.40;;;1.30;;
9128;SDS011;4599;50.906;6.786;2023-01-16T22:06:30;2.80;;;1.20;;
9128;SDS011;4599;50.906;6.786;2023-01-16T22:10:33;1.40;;;1.30;;
9128;SDS011;4599;50.906;6.786;2023-01-16T22:14:36;1.63;;;1.40;;
9128;SDS011;4599;50.906;6.786;2023-01-16T22:18:37;3.97;;;1.87;;
9128;SDS011;4599;50.906;6.786;2023-01-16T22:22:39;4.20;;;1.70;;
9128;SDS011;4599;50.906;6.786;2023-01-16T22:26:42;3.03;;;2.07;;
9128;SDS011;4599;50.906;6.786;2023-01-16T22:30:44;3.50;;;2.00;;
9128;SDS011;4599;50.906;6.786;2023-01-16T22:34:46;4.23;;;2.17;;
9128;SDS011;4599;50.906;6.786;2023-01-16T22:38:48;2.67;;;1.73;;
9128;SDS011;4599;50.906;6.786;2023-01-16T22:42:52;3.10;;;2.00;;
9128;SDS011;4599;50.906;6.786;2023-01-16T22:46:54;3.60;;;1.80;;
9128;SDS011;4599;50.906;6.786;2023-01-16T22:50:55;3.30;;;1.73;;
9128;SDS011;4599;50.906;6.786;2023-01-16T22:55:04;5.43;;;2.00;;
9128;SDS011;4599;50.906;6.786;2023-01-16T22:59:07;3.97;;;1.97;;
9128;SDS011;4599;50.906;6.786;2023-01-16T23:03:08;4.53;;;2.17;;
9128;SDS011;4599;50.906;6.786;2023-01-16T23:07:11;3.57;;;1.83;;
9128;SDS011;4599;50.906;6.786;2023-01-16T23:11:21;3.63;;;1.40;;
9128;SDS011;4599;50.906;6.786;2023-01-16T23:15:26;1.67;;;1.30;;
9128;SDS011;4599;50.906;6.786;2023-01-16T23:19:28;1.00;;;0.90;;
9128;SDS011;4599;50.906;6.786;2023-01-16T23:23:31;1.47;;;0.73;;
9128;SDS011;4599;50.906;6.786;2023-01-16T23:27:33;0.73;;;0.60;;
9128;SDS011;4599;50.906;6.786;2023-01-16T23:31:36;1.80;;;0.93;;
9128;SDS011;4599;50.906;6.786;2023-01-16T23:35:38;2.03;;;1.20;;
9128;SDS011;4599;50.906;6.786;2023-01-16T23:39:40;0.97;;;0.87;;
9128;SDS011;4599;50.906;6.786;2023-01-16T23:43:41;1.23;;;1.10;;
9128;SDS011;4599;50.906;6.786;2023-01-16T23:47:44;2.60;;;1.30;;
9128;SDS011;4599;50.906;6.786;2023-01-16T23:51:46;0.87;;;0.87;;
9128;SDS011;4599;50.906;6.786;2023-01-16T23:55:47;1.53;;;0.90;;
9128;SDS011;4599;50.906;6.786;2023-01-16T23:59:54;2.80;;;1.30;;
